createdAt,value
2023-01-29T00:01:24.921Z,4.60
2023-01-29T00:03:52.677Z,5.30
2023-01-29T00:06:19.933Z,5.40
2023-01-29T00:08:50.969Z,5.00
2023-01-29T00:11:20.596Z,5.10
2023-01-29T00:13:48.097Z,5.40
2023-01-29T00:16:15.759Z,4.80
2023-01-29T00:18:43.873Z,5.10
2023-01-29T00:21:12.305Z,4.70
2023-01-29T00:23:39.397Z,5.10
2023-01-29T00:26:06.969Z,5.30
2023-01-29T00:28:34.445Z,5.00
2023-01-29T00:31:12.651Z,4.90
2023-01-29T00:33:39.887Z,4.80
2023-01-29T00:36:10.475Z,5.50
2023-01-29T00:38:37.588Z,5.00
2023-01-29T00:41:36.762Z,5.50
2023-01-29T00:44:23.151Z,4.80
2023-01-29T00:46:50.226Z,5.50
2023-01-29T00:49:17.247Z,5.40
2023-01-29T00:58:05.430Z,4.80
2023-01-29T01:00:33.034Z,5.40
2023-01-29T01:03:06.132Z,5.50
2023-01-29T01:05:33.540Z,5.40
2023-01-29T01:08:00.691Z,5.40
2023-01-29T01:10:32.581Z,5.30
2023-01-29T01:13:01.823Z,5.70
2023-01-29T01:15:31.814Z,5.20
2023-01-29T01:18:00.218Z,5.00
2023-01-29T01:20:30.264Z,5.60
2023-01-29T01:22:57.408Z,6.20
2023-01-29T01:25:25.273Z,5.60
2023-01-29T01:27:57.386Z,5.60
2023-01-29T01:30:24.698Z,5.80
2023-01-29T01:32:51.883Z,6.10
2023-01-29T01:35:19.220Z,5.50
2023-01-29T01:37:46.393Z,5.40
2023-01-29T01:40:18.688Z,5.80
2023-01-29T01:45:22.232Z,5.90
2023-01-29T01:48:13.461Z,6.20
2023-01-29T01:50:46.071Z,6.00
2023-01-29T01:53:15.376Z,5.20
2023-01-29T01:55:45.571Z,5.50
2023-01-29T01:58:25.640Z,6.20
2023-01-29T02:00:53.320Z,6.50
2023-01-29T02:03:39.453Z,5.40
2023-01-29T02:06:25.409Z,5.70
2023-01-29T02:09:30.791Z,5.70
2023-01-29T02:11:58.454Z,6.20
2023-01-29T02:14:26.011Z,6.20
2023-01-29T02:16:53.264Z,6.60
2023-01-29T02:19:34.067Z,6.30
2023-01-29T02:22:35.224Z,5.80
2023-01-29T02:25:25.495Z,6.00
2023-01-29T02:28:17.837Z,6.50
2023-01-29T02:30:58.841Z,6.10
2023-01-29T02:33:32.217Z,7.00
2023-01-29T02:36:14.544Z,6.00
2023-01-29T02:39:02.053Z,6.50
2023-01-29T02:41:39.718Z,6.60
2023-01-29T02:44:14.995Z,7.10
2023-01-29T02:46:53.666Z,6.60
2023-01-29T02:49:25.157Z,6.20
2023-01-29T02:52:01.985Z,5.80
2023-01-29T02:54:42.188Z,6.10
2023-01-29T02:57:31.894Z,6.60
2023-01-29T03:00:02.430Z,6.50
2023-01-29T03:02:46.168Z,6.60
2023-01-29T03:05:20.468Z,6.60
2023-01-29T03:07:54.116Z,6.80
2023-01-29T03:10:44.059Z,6.90
2023-01-29T03:13:42.186Z,6.20
2023-01-29T03:16:23.247Z,6.20
2023-01-29T03:18:55.233Z,5.90
2023-01-29T03:21:47.998Z,7.00
2023-01-29T03:25:09.612Z,6.40
2023-01-29T03:28:02.750Z,5.60
2023-01-29T03:30:54.382Z,6.40
2023-01-29T03:34:08.321Z,6.60
2023-01-29T03:36:45.792Z,6.00
2023-01-29T03:39:14.092Z,5.60
2023-01-29T03:41:56.147Z,6.40
2023-01-29T03:45:22.716Z,6.90
2023-01-29T03:48:03.827Z,6.10
2023-01-29T03:50:32.935Z,6.60
2023-01-29T03:53:24.240Z,6.60
2023-01-29T03:56:02.421Z,6.10
2023-01-29T03:58:36.857Z,6.30
2023-01-29T04:01:12.503Z,5.80
2023-01-29T04:06:31.500Z,6.20
2023-01-29T04:09:03.955Z,6.40
2023-01-29T04:11:31.677Z,6.40
2023-01-29T04:13:58.590Z,6.50
2023-01-29T04:16:28.602Z,7.00
2023-01-29T04:19:06.552Z,6.40
2023-01-29T04:21:37.658Z,6.50
2023-01-29T04:24:06.059Z,6.40
2023-01-29T04:26:37.389Z,6.60
2023-01-29T04:29:23.105Z,7.30
2023-01-29T04:32:53.459Z,6.30
2023-01-29T04:35:36.350Z,6.40
2023-01-29T04:38:21.158Z,6.40
2023-01-29T04:40:56.892Z,7.20
2023-01-29T04:43:32.984Z,6.60
2023-01-29T04:46:17.654Z,6.20
2023-01-29T04:49:05.139Z,6.80
2023-01-29T04:51:37.381Z,7.50
2023-01-29T04:54:12.543Z,7.60
2023-01-29T04:56:51.350Z,6.80
2023-01-29T04:59:45.554Z,7.00
2023-01-29T05:02:13.719Z,7.10
2023-01-29T05:04:41.626Z,7.20
2023-01-29T05:07:11.446Z,7.40
2023-01-29T05:09:40.211Z,7.30
2023-01-29T05:12:07.722Z,6.80
2023-01-29T05:14:35.249Z,7.10
2023-01-29T05:17:03.736Z,7.00
2023-01-29T05:19:32.370Z,8.00
2023-01-29T05:21:59.264Z,7.30
2023-01-29T05:24:26.879Z,7.40
2023-01-29T05:27:16.048Z,7.00
2023-01-29T05:29:45.485Z,7.70
2023-01-29T05:32:12.582Z,7.20
2023-01-29T05:34:43.729Z,7.10
2023-01-29T05:37:11.425Z,7.80
2023-01-29T05:39:38.429Z,8.00
2023-01-29T05:42:05.369Z,7.40
2023-01-29T05:44:33.414Z,7.20
2023-01-29T05:47:02.851Z,8.40
2023-01-29T05:49:29.945Z,8.30
2023-01-29T05:51:57.183Z,8.80
2023-01-29T05:54:24.379Z,8.30
2023-01-29T05:56:51.234Z,8.60
2023-01-29T05:59:18.154Z,8.10
2023-01-29T06:01:45.366Z,7.70
2023-01-29T06:04:12.691Z,8.50
2023-01-29T06:06:41.525Z,8.30
2023-01-29T06:09:10.866Z,8.40
2023-01-29T06:11:37.716Z,9.20
2023-01-29T06:14:05.158Z,8.40
2023-01-29T06:16:32.065Z,8.50
2023-01-29T06:18:59.131Z,8.80
2023-01-29T06:21:26.103Z,8.60
2023-01-29T06:23:53.872Z,9.10
2023-01-29T06:26:21.048Z,8.40
2023-01-29T06:28:51.610Z,8.80
2023-01-29T06:34:07.465Z,8.00
2023-01-29T06:36:34.594Z,8.70
2023-01-29T06:39:01.683Z,9.20
2023-01-29T06:41:28.818Z,9.00
2023-01-29T06:43:55.828Z,9.40
2023-01-29T06:46:22.774Z,8.70
2023-01-29T06:48:49.666Z,9.20
2023-01-29T06:51:17.321Z,7.60
2023-01-29T06:53:46.211Z,8.40
2023-01-29T06:56:13.934Z,9.30
2023-01-29T10:53:02.565Z,9.50
2023-01-29T10:55:32.170Z,9.80
2023-01-29T10:58:37.384Z,10.60
2023-01-29T11:01:04.051Z,9.60
2023-01-29T11:03:40.904Z,9.90
2023-01-29T11:06:11.403Z,10.90
2023-01-29T16:53:21.160Z,15.90
2023-01-29T16:55:49.236Z,16.70
2023-01-29T16:58:17.200Z,17.40
2023-01-29T17:00:45.360Z,15.70
2023-01-29T17:03:11.837Z,15.60
2023-01-29T17:05:38.245Z,16.10
2023-01-29T17:08:05.727Z,16.00
2023-01-29T17:10:32.235Z,16.50
2023-01-29T17:13:05.227Z,15.90
2023-01-29T17:15:42.891Z,15.10
2023-01-29T17:18:17.795Z,16.20
2023-01-29T17:20:44.035Z,15.80
2023-01-29T17:23:10.409Z,16.20
2023-01-29T17:25:36.579Z,17.40
2023-01-29T17:28:03.184Z,16.40
2023-01-29T17:30:33.960Z,15.10
2023-01-29T17:33:02.236Z,15.40
2023-01-29T17:35:28.773Z,16.30
2023-01-29T17:37:54.952Z,15.80
2023-01-29T17:40:28.044Z,15.90
2023-01-29T17:42:54.216Z,16.30
2023-01-29T17:45:20.564Z,15.60
2023-01-29T17:47:46.815Z,15.70
2023-01-29T17:50:17.415Z,15.90
2023-01-29T17:52:44.307Z,16.00
2023-01-29T17:55:10.729Z,15.50
2023-01-29T17:57:37.568Z,15.50
2023-01-29T18:00:12.837Z,15.30
2023-01-29T18:02:40.790Z,15.50
2023-01-29T18:05:07.428Z,15.70
2023-01-29T18:07:34.440Z,15.80
2023-01-29T18:10:01.037Z,15.30
2023-01-29T18:12:27.323Z,16.10
2023-01-29T18:14:53.942Z,14.10
2023-01-29T18:17:21.857Z,16.20
2023-01-29T18:19:48.687Z,14.70
2023-01-29T18:22:15.205Z,14.60
2023-01-29T18:24:41.685Z,14.60
2023-01-29T18:27:08.378Z,14.60
2023-01-29T18:29:35.827Z,14.80
2023-01-29T18:32:02.360Z,15.00
2023-01-29T18:34:28.755Z,13.50
2023-01-29T18:36:54.922Z,14.00
2023-01-29T18:39:21.060Z,13.70
2023-01-29T18:41:47.227Z,13.00
2023-01-29T18:44:13.508Z,14.10
2023-01-29T18:46:39.861Z,13.80
2023-01-29T18:49:06.242Z,12.60
2023-01-29T18:51:32.729Z,13.10
2023-01-29T18:53:58.992Z,12.40
2023-01-29T18:56:25.404Z,14.00
2023-01-29T18:58:56.060Z,11.60
2023-01-29T19:01:23.537Z,11.40
2023-01-29T19:03:49.996Z,11.40
2023-01-29T19:06:16.291Z,11.80
2023-01-29T19:08:43.363Z,11.50
2023-01-29T19:11:11.773Z,11.50
2023-01-29T19:13:39.865Z,12.20
2023-01-29T19:16:09.392Z,11.40
2023-01-29T19:18:36.149Z,12.00
2023-01-29T19:21:07.908Z,11.40
2023-01-29T19:23:36.172Z,12.00
2023-01-29T19:26:02.441Z,11.70
2023-01-29T19:28:28.823Z,10.90
2023-01-29T19:30:58.908Z,10.90
2023-01-29T19:33:27.088Z,10.40
2023-01-29T19:35:57.166Z,11.10
2023-01-29T19:38:23.525Z,11.40
2023-01-29T19:40:50.232Z,10.50
2023-01-29T19:43:19.479Z,10.70
2023-01-29T19:45:50.773Z,11.70
2023-01-29T19:48:20.590Z,11.60
2023-01-29T19:50:56.746Z,12.00
2023-01-29T19:53:23.089Z,11.30
2023-01-29T19:56:19.330Z,10.70
2023-01-29T19:58:46.361Z,11.50
2023-01-29T20:01:17.407Z,11.50
2023-01-29T20:03:47.085Z,10.60
2023-01-29T20:06:15.212Z,10.50
2023-01-29T20:08:41.744Z,9.90
2023-01-29T20:11:09.195Z,11.60
2023-01-29T20:13:35.609Z,11.60
2023-01-29T20:16:03.338Z,11.60
2023-01-29T20:18:32.148Z,11.30
2023-01-29T20:20:58.651Z,11.20
2023-01-29T20:23:37.157Z,11.80
2023-01-29T20:26:07.313Z,12.40
2023-01-29T20:28:34.548Z,10.90
2023-01-29T20:31:00.990Z,10.90
2023-01-29T20:33:27.477Z,11.30
2023-01-29T20:35:54.654Z,11.00
2023-01-29T20:38:21.083Z,11.90
2023-01-29T20:40:47.248Z,11.20
2023-01-29T20:43:13.649Z,10.10
2023-01-29T20:45:39.795Z,10.20
2023-01-29T20:48:07.344Z,10.60
2023-01-29T20:50:34.540Z,10.60
2023-01-29T20:53:00.966Z,10.10
2023-01-29T20:55:27.276Z,10.30
2023-01-29T20:58:06.378Z,9.90
2023-01-29T21:00:33.298Z,11.20
2023-01-29T21:02:59.660Z,11.40
2023-01-29T21:05:25.937Z,11.30
2023-01-29T21:07:55.649Z,11.20
2023-01-29T21:10:21.931Z,11.00
2023-01-29T21:12:48.452Z,10.60
2023-01-29T21:15:14.748Z,10.80
2023-01-29T21:17:41.000Z,11.40
2023-01-29T21:20:08.290Z,11.70
2023-01-29T21:22:36.045Z,10.70
2023-01-29T21:25:02.271Z,11.50
2023-01-29T21:27:28.826Z,10.30
2023-01-29T21:29:57.332Z,11.10
2023-01-29T21:32:23.720Z,10.80
2023-01-29T21:34:56.488Z,11.20
2023-01-29T21:37:22.740Z,10.80
2023-01-29T21:39:49.735Z,10.20
2023-01-29T21:42:34.380Z,11.20
2023-01-29T21:45:00.549Z,9.90
2023-01-29T21:47:26.731Z,10.30
2023-01-29T21:49:52.905Z,11.60
2023-01-29T21:52:19.150Z,9.50
2023-01-29T21:54:48.224Z,9.80
2023-01-29T21:57:14.956Z,9.30
2023-01-29T21:59:42.036Z,10.30
2023-01-29T22:02:14.561Z,9.80
2023-01-29T22:04:41.704Z,9.80
2023-01-29T22:07:09.490Z,9.30
2023-01-29T22:09:36.399Z,9.10
2023-01-29T22:12:03.519Z,10.10
2023-01-29T22:14:30.861Z,9.80
2023-01-29T22:16:57.332Z,9.30
2023-01-29T22:19:24.684Z,9.30
2023-01-29T22:21:52.387Z,9.70
2023-01-29T22:24:19.915Z,9.20
2023-01-29T22:26:48.554Z,8.90
2023-01-29T22:29:16.450Z,8.70
2023-01-29T22:31:43.353Z,9.70
2023-01-29T22:34:10.285Z,8.60
2023-01-29T22:36:36.577Z,7.70
2023-01-29T22:39:02.883Z,9.10
2023-01-29T22:41:32.941Z,8.60
2023-01-29T22:43:59.910Z,8.60
2023-01-29T22:46:26.094Z,8.10
2023-01-29T22:48:53.212Z,8.50
2023-01-29T22:51:19.629Z,6.90
2023-01-29T22:53:54.116Z,9.10
2023-01-29T22:56:21.616Z,7.50
2023-01-29T22:58:55.197Z,7.90
2023-01-29T23:01:26.424Z,7.30
2023-01-29T23:03:54.240Z,8.20
2023-01-29T23:06:23.268Z,7.50
2023-01-29T23:08:49.812Z,8.00
2023-01-29T23:11:19.362Z,7.70
2023-01-29T23:13:47.299Z,7.10
2023-01-29T23:16:14.084Z,7.00
2023-01-29T23:18:40.502Z,7.10
2023-01-29T23:21:07.014Z,6.40
2023-01-29T23:23:34.177Z,6.70
2023-01-29T23:26:20.214Z,5.90
2023-01-29T23:28:46.514Z,6.80
2023-01-29T23:31:13.062Z,6.20
2023-01-29T23:33:39.843Z,5.90
2023-01-29T23:36:06.514Z,5.00
2023-01-29T23:38:32.908Z,5.10
2023-01-29T23:40:59.501Z,4.70
2023-01-29T23:43:26.433Z,6.50
2023-01-29T23:45:52.901Z,6.40
2023-01-29T23:48:19.780Z,6.20
2023-01-29T23:50:47.733Z,6.10
2023-01-29T23:53:13.879Z,5.70
2023-01-29T23:55:41.039Z,4.80
2023-01-29T23:58:07.237Z,6.10
